Main page
METAR-TAF:

METAR-TAF

Airports :

Bonriki International Airport

Tarawa, Kiribati

latitude: 01-21N, longitude: 172-55E, elevation: 2 m

Current weather observation

The report was made 39 minutes ago, at 18:00 UTC
Wind 8 kt from the North/Northeast
Temperature 29°C
Humidity 84%
Pressure 1005 hPa
Visibility 10 km or more
Few clouds at a height of 2000 ft
Broken clouds at a height of 5000 ft

METAR: NGTA 171800Z 03008KT 9999 FEW020 BKN050 29/26 Q1005

Time: 08:39 (18:39 UTC)

Forecast

The report was made 1 hour and 12 minutes ago, at 17:27 UTC
Forecast valid from 17 at 18 UTC to 18 at 18 UTC
Wind 7 kt from the Northeast
Visibility 10 km or more
Few clouds at a height of 2000 ft
Scattered clouds at a height of 5000 ft

TAF: NGTA 171727Z 1718/1818 05007KT 9999 FEW020 SCT050

Weather observations and forecasts of more than 4000 airports (METAR and TAF reports).

The available stations are represented by yellow and red dots on the map.

Hover mouse over dot to see the name of the station.

Then click to see weather observations and forecasts.

To change the map : click on the green buttons with a black cross to zoom in, on the green button with a dash to zoom out, or on the green arrows for adjacent maps.


METAR-TAF: